sensor_id;sensor_type;location;lat;lon;timestamp;pressure;altitude;pressure_sealevel;temperature;humidity
36380;BME280;22411;53.016;18.632;2023-02-21T00:02:54;99469.66;;;7.50;100.00
36380;BME280;22411;53.016;18.632;2023-02-21T00:05:38;99469.66;;;7.50;100.00
36380;BME280;22411;53.016;18.632;2023-02-21T00:08:23;99466.16;;;7.51;100.00
36380;BME280;22411;53.016;18.632;2023-02-21T00:11:08;99474.22;;;7.46;100.00
36380;BME280;22411;53.016;18.632;2023-02-21T00:13:55;99472.44;;;7.47;100.00
36380;BME280;22411;53.016;18.632;2023-02-21T00:16:39;99467.91;;;7.50;100.00
36380;BME280;22411;53.016;18.632;2023-02-21T00:19:24;99461.19;;;7.48;100.00
36380;BME280;22411;53.016;18.632;2023-02-21T00:22:08;99456.28;;;7.45;100.00
36380;BME280;22411;53.016;18.632;2023-02-21T00:24:53;99459.06;;;7.42;100.00
36380;BME280;22411;53.016;18.632;2023-02-21T00:27:37;99451.66;;;7.37;100.00
36380;BME280;22411;53.016;18.632;2023-02-21T00:30:22;99461.03;;;7.38;100.00
36380;BME280;22411;53.016;18.632;2023-02-21T00:33:06;99458.75;;;7.46;100.00
36380;BME280;22411;53.016;18.632;2023-02-21T00:35:51;99443.59;;;7.42;100.00
36380;BME280;22411;53.016;18.632;2023-02-21T00:38:36;99449.19;;;7.36;100.00
36380;BME280;22411;53.016;18.632;2023-02-21T00:41:21;99446.81;;;7.32;100.00
36380;BME280;22411;53.016;18.632;2023-02-21T00:44:05;99465.94;;;7.30;100.00
36380;BME280;22411;53.016;18.632;2023-02-21T00:46:50;99450.66;;;7.27;100.00
36380;BME280;22411;53.016;18.632;2023-02-21T00:49:34;99453.56;;;7.22;100.00
36380;BME280;22411;53.016;18.632;2023-02-21T00:52:19;99456.88;;;7.24;100.00
36380;BME280;22411;53.016;18.632;2023-02-21T00:55:03;99448.31;;;7.24;100.00
36380;BME280;22411;53.016;18.632;2023-02-21T00:57:48;99447.88;;;7.30;100.00
36380;BME280;22411;53.016;18.632;2023-02-21T01:00:33;99452.34;;;7.28;100.00
36380;BME280;22411;53.016;18.632;2023-02-21T01:03:17;99443.66;;;7.29;100.00
36380;BME280;22411;53.016;18.632;2023-02-21T01:06:02;99431.09;;;7.24;100.00
36380;BME280;22411;53.016;18.632;2023-02-21T01:08:46;99455.72;;;7.28;100.00
36380;BME280;22411;53.016;18.632;2023-02-21T01:11:31;99474.81;;;7.26;100.00
36380;BME280;22411;53.016;18.632;2023-02-21T01:14:16;99461.59;;;7.30;100.00
36380;BME280;22411;53.016;18.632;2023-02-21T01:17:01;99473.53;;;7.31;100.00
36380;BME280;22411;53.016;18.632;2023-02-21T01:19:46;99478.13;;;7.28;100.00
36380;BME280;22411;53.016;18.632;2023-02-21T01:22:30;99478.19;;;7.26;100.00
36380;BME280;22411;53.016;18.632;2023-02-21T01:25:16;99475.53;;;7.28;100.00
36380;BME280;22411;53.016;18.632;2023-02-21T01:28:01;99467.06;;;7.26;100.00
36380;BME280;22411;53.016;18.632;2023-02-21T01:30:45;99471.41;;;7.25;100.00
36380;BME280;22411;53.016;18.632;2023-02-21T01:33:38;99485.22;;;7.24;100.00
36380;BME280;22411;53.016;18.632;2023-02-21T01:36:23;99452.25;;;7.17;100.00
36380;BME280;22411;53.016;18.632;2023-02-21T01:39:09;99461.75;;;7.16;100.00
36380;BME280;22411;53.016;18.632;2023-02-21T01:41:54;99474.53;;;7.18;100.00
36380;BME280;22411;53.016;18.632;2023-02-21T01:44:41;99477.44;;;7.13;100.00
36380;BME280;22411;53.016;18.632;2023-02-21T01:47:26;99474.94;;;7.12;100.00
36380;BME280;22411;53.016;18.632;2023-02-21T01:50:24;99475.06;;;7.10;100.00
36380;BME280;22411;53.016;18.632;2023-02-21T01:53:16;99476.94;;;7.08;100.00
36380;BME280;22411;53.016;18.632;2023-02-21T01:56:02;99482.09;;;7.08;100.00
36380;BME280;22411;53.016;18.632;2023-02-21T01:58:50;99486.31;;;7.09;100.00
36380;BME280;22411;53.016;18.632;2023-02-21T02:01:44;99494.16;;;7.07;100.00
36380;BME280;22411;53.016;18.632;2023-02-21T02:04:31;99493.41;;;7.05;100.00
36380;BME280;22411;53.016;18.632;2023-02-21T02:07:17;99482.84;;;6.97;100.00
36380;BME280;22411;53.016;18.632;2023-02-21T02:10:02;99486.00;;;7.01;100.00
36380;BME280;22411;53.016;18.632;2023-02-21T02:23:32;99480.97;;;6.99;100.00
36380;BME280;22411;53.016;18.632;2023-02-21T02:30:04;99480.16;;;6.99;100.00
36380;BME280;22411;53.016;18.632;2023-02-21T02:33:13;99466.31;;;7.00;100.00
36380;BME280;22411;53.016;18.632;2023-02-21T02:35:51;99515.50;;;6.97;100.00
36380;BME280;22411;53.016;18.632;2023-02-21T02:38:33;99478.94;;;6.92;100.00
36380;BME280;22411;53.016;18.632;2023-02-21T02:46:58;99473.88;;;6.90;100.00
36380;BME280;22411;53.016;18.632;2023-02-21T02:49:28;99473.03;;;6.90;100.00
36380;BME280;22411;53.016;18.632;2023-02-21T02:52:02;99498.72;;;6.91;100.00
36380;BME280;22411;53.016;18.632;2023-02-21T02:54:29;99482.84;;;6.85;100.00
36380;BME280;22411;53.016;18.632;2023-02-21T02:56:54;99470.06;;;6.83;100.00
36380;BME280;22411;53.016;18.632;2023-02-21T02:59:24;99480.38;;;6.83;100.00
36380;BME280;22411;53.016;18.632;2023-02-21T03:05:10;99490.28;;;6.76;100.00
36380;BME280;22411;53.016;18.632;2023-02-21T03:10:26;99476.09;;;6.71;100.00
36380;BME280;22411;53.016;18.632;2023-02-21T03:13:07;99465.03;;;6.69;100.00
36380;BME280;22411;53.016;18.632;2023-02-21T03:15:51;99483.06;;;6.69;100.00
36380;BME280;22411;53.016;18.632;2023-02-21T03:19:03;99499.06;;;6.61;100.00
36380;BME280;22411;53.016;18.632;2023-02-21T03:21:25;99467.75;;;6.54;100.00
36380;BME280;22411;53.016;18.632;2023-02-21T03:23:54;99467.97;;;6.51;100.00
36380;BME280;22411;53.016;18.632;2023-02-21T03:26:23;99470.13;;;6.45;100.00
36380;BME280;22411;53.016;18.632;2023-02-21T03:28:51;99473.00;;;6.40;100.00
36380;BME280;22411;53.016;18.632;2023-02-21T03:31:22;99467.66;;;6.31;100.00
36380;BME280;22411;53.016;18.632;2023-02-21T03:33:49;99482.16;;;6.32;100.00
36380;BME280;22411;53.016;18.632;2023-02-21T03:36:16;99486.72;;;6.28;100.00
36380;BME280;22411;53.016;18.632;2023-02-21T03:38:43;99486.09;;;6.24;100.00
36380;BME280;22411;53.016;18.632;2023-02-21T03:41:10;99476.41;;;6.28;100.00
36380;BME280;22411;53.016;18.632;2023-02-21T03:43:37;99488.94;;;6.33;100.00
36380;BME280;22411;53.016;18.632;2023-02-21T03:46:06;99479.50;;;6.33;100.00
36380;BME280;22411;53.016;18.632;2023-02-21T03:48:32;99497.31;;;6.36;100.00
36380;BME280;22411;53.016;18.632;2023-02-21T03:50:59;99490.31;;;6.38;100.00
36380;BME280;22411;53.016;18.632;2023-02-21T03:53:25;99494.72;;;6.36;100.00
36380;BME280;22411;53.016;18.632;2023-02-21T03:55:51;99491.03;;;6.40;100.00
36380;BME280;22411;53.016;18.632;2023-02-21T03:58:17;99495.47;;;6.38;100.00
36380;BME280;22411;53.016;18.632;2023-02-21T04:00:44;99488.75;;;6.36;100.00
36380;BME280;22411;53.016;18.632;2023-02-21T04:03:09;99489.69;;;6.35;100.00
36380;BME280;22411;53.016;18.632;2023-02-21T04:05:36;99499.97;;;6.35;100.00
36380;BME280;22411;53.016;18.632;2023-02-21T04:08:02;99484.44;;;6.36;100.00
36380;BME280;22411;53.016;18.632;2023-02-21T04:10:28;99470.75;;;6.36;100.00
36380;BME280;22411;53.016;18.632;2023-02-21T04:12:54;99453.84;;;6.32;100.00
36380;BME280;22411;53.016;18.632;2023-02-21T04:15:20;99469.41;;;6.30;100.00
36380;BME280;22411;53.016;18.632;2023-02-21T04:17:46;99471.69;;;6.35;100.00
36380;BME280;22411;53.016;18.632;2023-02-21T04:20:14;99487.13;;;6.35;100.00
36380;BME280;22411;53.016;18.632;2023-02-21T04:22:39;99495.03;;;6.32;100.00
36380;BME280;22411;53.016;18.632;2023-02-21T04:25:06;99492.47;;;6.32;100.00
36380;BME280;22411;53.016;18.632;2023-02-21T04:27:32;99494.22;;;6.31;100.00
36380;BME280;22411;53.016;18.632;2023-02-21T04:30:00;99484.84;;;6.30;100.00
36380;BME280;22411;53.016;18.632;2023-02-21T04:32:26;99479.59;;;6.32;100.00
36380;BME280;22411;53.016;18.632;2023-02-21T04:34:52;99477.94;;;6.31;100.00
36380;BME280;22411;53.016;18.632;2023-02-21T04:37:18;99489.38;;;6.26;100.00
36380;BME280;22411;53.016;18.632;2023-02-21T04:39:44;99490.09;;;6.28;100.00
36380;BME280;22411;53.016;18.632;2023-02-21T04:42:10;99485.88;;;6.27;100.00
36380;BME280;22411;53.016;18.632;2023-02-21T04:44:37;99471.28;;;6.28;100.00
36380;BME280;22411;53.016;18.632;2023-02-21T04:47:03;99478.16;;;6.27;100.00
36380;BME280;22411;53.016;18.632;2023-02-21T04:49:29;99469.59;;;6.27;100.00
36380;BME280;22411;53.016;18.632;2023-02-21T04:51:55;99466.44;;;6.23;100.00
36380;BME280;22411;53.016;18.632;2023-02-21T04:54:21;99464.78;;;6.22;100.00
36380;BME280;22411;53.016;18.632;2023-02-21T04:56:47;99468.88;;;6.25;100.00
36380;BME280;22411;53.016;18.632;2023-02-21T04:59:13;99477.44;;;6.25;100.00
36380;BME280;22411;53.016;18.632;2023-02-21T05:01:39;99487.84;;;6.24;100.00
36380;BME280;22411;53.016;18.632;2023-02-21T05:04:07;99476.59;;;6.25;100.00
36380;BME280;22411;53.016;18.632;2023-02-21T05:06:33;99474.44;;;6.32;100.00
36380;BME280;22411;53.016;18.632;2023-02-21T05:09:00;99474.03;;;6.25;100.00
36380;BME280;22411;53.016;18.632;2023-02-21T05:11:26;99480.81;;;6.26;100.00
36380;BME280;22411;53.016;18.632;2023-02-21T05:13:52;99479.69;;;6.30;100.00
36380;BME280;22411;53.016;18.632;2023-02-21T05:16:20;99476.31;;;6.29;100.00
36380;BME280;22411;53.016;18.632;2023-02-21T05:18:52;99473.72;;;6.29;100.00
36380;BME280;22411;53.016;18.632;2023-02-21T05:21:19;99471.34;;;6.26;100.00
36380;BME280;22411;53.016;18.632;2023-02-21T05:23:45;99471.56;;;6.23;100.00
36380;BME280;22411;53.016;18.632;2023-02-21T05:26:23;99481.56;;;6.28;100.00
36380;BME280;22411;53.016;18.632;2023-02-21T05:28:50;99488.66;;;6.24;100.00
36380;BME280;22411;53.016;18.632;2023-02-21T05:31:17;99484.84;;;6.17;100.00
36380;BME280;22411;53.016;18.632;2023-02-21T05:33:44;99493.69;;;6.13;100.00
36380;BME280;22411;53.016;18.632;2023-02-21T05:36:09;99517.03;;;6.10;100.00
36380;BME280;22411;53.016;18.632;2023-02-21T05:38:50;99504.69;;;6.02;100.00
36380;BME280;22411;53.016;18.632;2023-02-21T05:41:17;99504.75;;;6.01;100.00
36380;BME280;22411;53.016;18.632;2023-02-21T05:43:45;99511.06;;;5.97;100.00
36380;BME280;22411;53.016;18.632;2023-02-21T05:46:20;99531.53;;;5.98;100.00
36380;BME280;22411;53.016;18.632;2023-02-21T05:48:47;99523.81;;;5.98;100.00
36380;BME280;22411;53.016;18.632;2023-02-21T05:51:14;99530.81;;;5.96;100.00
36380;BME280;22411;53.016;18.632;2023-02-21T05:53:40;99530.88;;;5.95;100.00
36380;BME280;22411;53.016;18.632;2023-02-21T05:56:06;99525.66;;;5.96;100.00
36380;BME280;22411;53.016;18.632;2023-02-21T05:58:33;99540.78;;;6.01;100.00
36380;BME280;22411;53.016;18.632;2023-02-21T06:00:59;99524.84;;;5.96;100.00
36380;BME280;22411;53.016;18.632;2023-02-21T06:03:25;99545.59;;;5.93;100.00
36380;BME280;22411;53.016;18.632;2023-02-21T06:05:51;99538.97;;;5.89;100.00
36380;BME280;22411;53.016;18.632;2023-02-21T06:08:19;99538.25;;;5.87;100.00
36380;BME280;22411;53.016;18.632;2023-02-21T06:10:45;99540.81;;;5.87;100.00
36380;BME280;22411;53.016;18.632;2023-02-21T06:13:12;99552.88;;;5.86;100.00
36380;BME280;22411;53.016;18.632;2023-02-21T06:15:39;99541.53;;;5.89;100.00
36380;BME280;22411;53.016;18.632;2023-02-21T06:18:07;99562.34;;;5.86;100.00
36380;BME280;22411;53.016;18.632;2023-02-21T06:20:32;99539.06;;;5.87;100.00
36380;BME280;22411;53.016;18.632;2023-02-21T06:22:59;99540.72;;;5.88;100.00
36380;BME280;22411;53.016;18.632;2023-02-21T06:25:25;99543.28;;;5.88;100.00
36380;BME280;22411;53.016;18.632;2023-02-21T06:27:52;99549.38;;;5.87;100.00
36380;BME280;22411;53.016;18.632;2023-02-21T06:30:18;99551.19;;;5.85;100.00
36380;BME280;22411;53.016;18.632;2023-02-21T06:32:44;99550.47;;;5.83;100.00
36380;BME280;22411;53.016;18.632;2023-02-21T06:35:11;99562.69;;;5.80;100.00
36380;BME280;22411;53.016;18.632;2023-02-21T06:37:37;99562.69;;;5.80;100.00
36380;BME280;22411;53.016;18.632;2023-02-21T06:40:03;99550.38;;;5.85;100.00
36380;BME280;22411;53.016;18.632;2023-02-21T06:42:30;99566.63;;;5.85;100.00
36380;BME280;22411;53.016;18.632;2023-02-21T06:44:56;99559.75;;;5.86;100.00
36380;BME280;22411;53.016;18.632;2023-02-21T06:47:22;99568.38;;;5.85;100.00
36380;BME280;22411;53.016;18.632;2023-02-21T06:49:48;99576.72;;;5.88;100.00
36380;BME280;22411;53.016;18.632;2023-02-21T06:52:14;99573.44;;;5.86;100.00
36380;BME280;22411;53.016;18.632;2023-02-21T06:54:40;99589.69;;;5.87;100.00
36380;BME280;22411;53.016;18.632;2023-02-21T06:57:08;99592.06;;;5.90;100.00
36380;BME280;22411;53.016;18.632;2023-02-21T06:59:34;99596.13;;;5.94;100.00
36380;BME280;22411;53.016;18.632;2023-02-21T07:02:00;99592.63;;;5.95;100.00
36380;BME280;22411;53.016;18.632;2023-02-21T07:04:27;99602.00;;;5.96;100.00
36380;BME280;22411;53.016;18.632;2023-02-21T07:06:55;99609.41;;;6.00;100.00
36380;BME280;22411;53.016;18.632;2023-02-21T07:09:21;99615.38;;;6.01;100.00
36380;BME280;22411;53.016;18.632;2023-02-21T07:11:48;99615.19;;;6.04;100.00
36380;BME280;22411;53.016;18.632;2023-02-21T07:14:14;99620.88;;;6.09;100.00
36380;BME280;22411;53.016;18.632;2023-02-21T07:16:41;99618.13;;;6.12;100.00
36380;BME280;22411;53.016;18.632;2023-02-21T07:19:07;99633.97;;;6.19;100.00
36380;BME280;22411;53.016;18.632;2023-02-21T07:21:33;99646.94;;;6.17;100.00
36380;BME280;22411;53.016;18.632;2023-02-21T07:23:59;99639.13;;;6.19;100.00
36380;BME280;22411;53.016;18.632;2023-02-21T07:26:26;99632.22;;;6.19;100.00
36380;BME280;22411;53.016;18.632;2023-02-21T07:28:53;99644.28;;;6.19;100.00
36380;BME280;22411;53.016;18.632;2023-02-21T07:31:21;99645.09;;;6.19;100.00
36380;BME280;22411;53.016;18.632;2023-02-21T07:33:47;99647.66;;;6.19;100.00
36380;BME280;22411;53.016;18.632;2023-02-21T07:36:13;99664.03;;;6.18;100.00
36380;BME280;22411;53.016;18.632;2023-02-21T07:38:39;99652.28;;;6.14;100.00
36380;BME280;22411;53.016;18.632;2023-02-21T07:41:06;99655.09;;;6.24;100.00
36380;BME280;22411;53.016;18.632;2023-02-21T07:43:32;99664.63;;;6.22;100.00
36380;BME280;22411;53.016;18.632;2023-02-21T07:45:58;99679.78;;;6.26;100.00
36380;BME280;22411;53.016;18.632;2023-02-21T07:48:26;99667.75;;;6.27;100.00
36380;BME280;22411;53.016;18.632;2023-02-21T07:50:53;99691.22;;;6.22;100.00
36380;BME280;22411;53.016;18.632;2023-02-21T07:53:20;99694.22;;;6.29;100.00
36380;BME280;22411;53.016;18.632;2023-02-21T07:55:47;99696.91;;;6.27;100.00
36380;BME280;22411;53.016;18.632;2023-02-21T07:58:15;99706.81;;;6.34;100.00
36380;BME280;22411;53.016;18.632;2023-02-21T08:00:41;99706.72;;;6.35;100.00
36380;BME280;22411;53.016;18.632;2023-02-21T08:03:10;99712.69;;;6.36;100.00
36380;BME280;22411;53.016;18.632;2023-02-21T08:05:37;99720.41;;;6.36;100.00
36380;BME280;22411;53.016;18.632;2023-02-21T08:08:08;99720.59;;;6.33;100.00
36380;BME280;22411;53.016;18.632;2023-02-21T08:10:35;99729.16;;;6.33;100.00
36380;BME280;22411;53.016;18.632;2023-02-21T08:13:01;99740.03;;;6.24;100.00
36380;BME280;22411;53.016;18.632;2023-02-21T08:15:27;99734.44;;;6.17;100.00
36380;BME280;22411;53.016;18.632;2023-02-21T08:17:53;99737.09;;;6.16;100.00
36380;BME280;22411;53.016;18.632;2023-02-21T08:20:21;99743.06;;;6.16;100.00
36380;BME280;22411;53.016;18.632;2023-02-21T08:22:49;99741.69;;;6.11;100.00
36380;BME280;22411;53.016;18.632;2023-02-21T08:25:16;99743.25;;;6.13;100.00
36380;BME280;22411;53.016;18.632;2023-02-21T08:27:43;99748.94;;;6.18;100.00
36380;BME280;22411;53.016;18.632;2023-02-21T08:30:12;99762.44;;;6.22;100.00
36380;BME280;22411;53.016;18.632;2023-02-21T08:32:39;99762.63;;;6.19;100.00
36380;BME280;22411;53.016;18.632;2023-02-21T08:35:06;99760.06;;;6.19;100.00
36380;BME280;22411;53.016;18.632;2023-02-21T08:37:33;99757.59;;;6.17;100.00
36380;BME280;22411;53.016;18.632;2023-02-21T08:40:02;99746.75;;;6.12;100.00
36380;BME280;22411;53.016;18.632;2023-02-21T08:42:28;99760.25;;;6.16;100.00
36380;BME280;22411;53.016;18.632;2023-02-21T08:44:54;99771.06;;;6.21;100.00
36380;BME280;22411;53.016;18.632;2023-02-21T08:47:26;99777.16;;;6.20;100.00
36380;BME280;22411;53.016;18.632;2023-02-21T08:49:52;99786.44;;;6.22;100.00
36380;BME280;22411;53.016;18.632;2023-02-21T08:52:19;99777.78;;;6.23;100.00
36380;BME280;22411;53.016;18.632;2023-02-21T08:54:46;99774.28;;;6.24;100.00
36380;BME280;22411;53.016;18.632;2023-02-21T08:57:12;99815.75;;;6.20;100.00
36380;BME280;22411;53.016;18.632;2023-02-21T08:59:39;99785.44;;;6.11;100.00
36380;BME280;22411;53.016;18.632;2023-02-21T09:02:25;99777.44;;;6.01;100.00
36380;BME280;22411;53.016;18.632;2023-02-21T09:04:53;99794.41;;;5.89;100.00
36380;BME280;22411;53.016;18.632;2023-02-21T09:07:22;99789.75;;;5.82;100.00
36380;BME280;22411;53.016;18.632;2023-02-21T09:09:53;99802.16;;;5.75;100.00
36380;BME280;22411;53.016;18.632;2023-02-21T09:12:19;99803.25;;;5.71;100.00
36380;BME280;22411;53.016;18.632;2023-02-21T09:14:45;99791.88;;;5.75;100.00
36380;BME280;22411;53.016;18.632;2023-02-21T09:17:13;99802.97;;;5.75;100.00
36380;BME280;22411;53.016;18.632;2023-02-21T09:19:40;99795.81;;;5.81;100.00
36380;BME280;22411;53.016;18.632;2023-02-21T09:22:07;99803.22;;;5.85;100.00
36380;BME280;22411;53.016;18.632;2023-02-21T09:24:34;99796.25;;;5.87;100.00
36380;BME280;22411;53.016;18.632;2023-02-21T09:27:00;99798.31;;;5.96;100.00
36380;BME280;22411;53.016;18.632;2023-02-21T09:29:31;99801.13;;;6.06;100.00
36380;BME280;22411;53.016;18.632;2023-02-21T09:31:57;99815.91;;;6.17;100.00
36380;BME280;22411;53.016;18.632;2023-02-21T09:34:23;99812.19;;;6.22;100.00
36380;BME280;22411;53.016;18.632;2023-02-21T09:36:49;99817.31;;;6.22;100.00
36380;BME280;22411;53.016;18.632;2023-02-21T09:39:18;99827.50;;;6.24;100.00
36380;BME280;22411;53.016;18.632;2023-02-21T09:41:44;99828.88;;;6.29;100.00
36380;BME280;22411;53.016;18.632;2023-02-21T09:44:15;99838.81;;;6.36;100.00
36380;BME280;22411;53.016;18.632;2023-02-21T09:46:45;99840.91;;;6.43;100.00
36380;BME280;22411;53.016;18.632;2023-02-21T09:49:19;99839.78;;;6.47;100.00
36380;BME280;22411;53.016;18.632;2023-02-21T09:51:47;99846.31;;;6.53;100.00
36380;BME280;22411;53.016;18.632;2023-02-21T09:54:36;99848.53;;;6.59;100.00
36380;BME280;22411;53.016;18.632;2023-02-21T09:57:05;99857.41;;;6.68;100.00
36380;BME280;22411;53.016;18.632;2023-02-21T09:59:34;99846.09;;;6.70;100.00
36380;BME280;22411;53.016;18.632;2023-02-21T10:07:15;99860.66;;;6.84;100.00
36380;BME280;22411;53.016;18.632;2023-02-21T10:09:51;99870.50;;;6.92;100.00
36380;BME280;22411;53.016;18.632;2023-02-21T10:12:27;99884.94;;;6.94;100.00
36380;BME280;22411;53.016;18.632;2023-02-21T10:15:17;99883.81;;;6.98;100.00
36380;BME280;22411;53.016;18.632;2023-02-21T10:20:37;99895.59;;;7.02;100.00
36380;BME280;22411;53.016;18.632;2023-02-21T10:23:34;99883.44;;;7.04;100.00
36380;BME280;22411;53.016;18.632;2023-02-21T10:26:02;99898.56;;;6.96;100.00
36380;BME280;22411;53.016;18.632;2023-02-21T10:28:31;99897.41;;;7.00;100.00
36380;BME280;22411;53.016;18.632;2023-02-21T10:31:02;99908.25;;;7.32;100.00
36380;BME280;22411;53.016;18.632;2023-02-21T10:33:30;99907.44;;;7.72;100.00
36380;BME280;22411;53.016;18.632;2023-02-21T10:35:58;99913.16;;;8.02;100.00
36380;BME280;22411;53.016;18.632;2023-02-21T10:38:25;99918.16;;;7.78;100.00
36380;BME280;22411;53.016;18.632;2023-02-21T10:41:01;99916.88;;;7.46;100.00
36380;BME280;22411;53.016;18.632;2023-02-21T10:43:39;99906.16;;;7.12;100.00
36380;BME280;22411;53.016;18.632;2023-02-21T10:48:40;99918.94;;;6.72;100.00
36380;BME280;22411;53.016;18.632;2023-02-21T10:51:12;99904.91;;;6.49;100.00
36380;BME280;22411;53.016;18.632;2023-02-21T10:53:43;99901.75;;;6.59;100.00
36380;BME280;22411;53.016;18.632;2023-02-21T10:59:02;99912.91;;;6.45;100.00
36380;BME280;22411;53.016;18.632;2023-02-21T11:01:36;99907.53;;;6.48;100.00
36380;BME280;22411;53.016;18.632;2023-02-21T11:04:22;99914.53;;;6.46;100.00
36380;BME280;22411;53.016;18.632;2023-02-21T11:06:53;99915.38;;;6.46;100.00
36380;BME280;22411;53.016;18.632;2023-02-21T11:15:04;99929.63;;;6.66;100.00
36380;BME280;22411;53.016;18.632;2023-02-21T11:17:31;99936.44;;;7.36;100.00
36380;BME280;22411;53.016;18.632;2023-02-21T11:20:22;99933.50;;;8.07;100.00
36380;BME280;22411;53.016;18.632;2023-02-21T11:22:49;99929.66;;;8.38;100.00
36380;BME280;22411;53.016;18.632;2023-02-21T11:25:28;99934.53;;;8.55;100.00
36380;BME280;22411;53.016;18.632;2023-02-21T11:27:58;99924.47;;;8.76;100.00
36380;BME280;22411;53.016;18.632;2023-02-21T11:30:25;99943.59;;;8.48;100.00
36380;BME280;22411;53.016;18.632;2023-02-21T11:32:55;99944.97;;;8.41;100.00
36380;BME280;22411;53.016;18.632;2023-02-21T11:35:39;99953.28;;;8.06;100.00
36380;BME280;22411;53.016;18.632;2023-02-21T11:38:36;99946.94;;;7.72;100.00
36380;BME280;22411;53.016;18.632;2023-02-21T11:41:17;99956.22;;;7.62;100.00
36380;BME280;22411;53.016;18.632;2023-02-21T11:43:56;99950.41;;;7.58;100.00
36380;BME280;22411;53.016;18.632;2023-02-21T11:51:55;99949.34;;;7.48;100.00
36380;BME280;22411;53.016;18.632;2023-02-21T11:54:26;99954.22;;;7.53;100.00
36380;BME280;22411;53.016;18.632;2023-02-21T11:57:05;99968.09;;;7.65;100.00
36380;BME280;22411;53.016;18.632;2023-02-21T11:59:48;99954.16;;;7.67;100.00
36380;BME280;22411;53.016;18.632;2023-02-21T12:02:45;99963.44;;;7.70;100.00
36380;BME280;22411;53.016;18.632;2023-02-21T12:05:44;99978.09;;;7.69;100.00
36380;BME280;22411;53.016;18.632;2023-02-21T12:08:38;99985.13;;;7.80;100.00
36380;BME280;22411;53.016;18.632;2023-02-21T12:13:37;99978.63;;;7.74;100.00
36380;BME280;22411;53.016;18.632;2023-02-21T12:19:15;99978.31;;;7.66;100.00
36380;BME280;22411;53.016;18.632;2023-02-21T12:24:50;99979.06;;;7.81;100.00
36380;BME280;22411;53.016;18.632;2023-02-21T12:27:37;99985.47;;;8.01;100.00
36380;BME280;22411;53.016;18.632;2023-02-21T12:44:18;100012.56;;;8.08;100.00
36380;BME280;22411;53.016;18.632;2023-02-21T12:53:06;99996.81;;;7.85;100.00
36380;BME280;22411;53.016;18.632;2023-02-21T12:58:19;100012.44;;;7.97;100.00
36380;BME280;22411;53.016;18.632;2023-02-21T13:00:57;100018.38;;;7.84;100.00
36380;BME280;22411;53.016;18.632;2023-02-21T13:03:39;100029.50;;;7.72;100.00
36380;BME280;22411;53.016;18.632;2023-02-21T13:06:20;100014.59;;;7.63;100.00
36380;BME280;22411;53.016;18.632;2023-02-21T13:09:10;100017.13;;;7.77;100.00
36380;BME280;22411;53.016;18.632;2023-02-21T13:11:58;100015.19;;;7.81;100.00
36380;BME280;22411;53.016;18.632;2023-02-21T13:14:33;100027.44;;;7.77;100.00
36380;BME280;22411;53.016;18.632;2023-02-21T13:17:01;100033.94;;;7.70;100.00
36380;BME280;22411;53.016;18.632;2023-02-21T13:19:38;100020.88;;;7.86;100.00
36380;BME280;22411;53.016;18.632;2023-02-21T13:22:24;100024.41;;;7.98;100.00
36380;BME280;22411;53.016;18.632;2023-02-21T13:25:18;100035.97;;;7.92;100.00
36380;BME280;22411;53.016;18.632;2023-02-21T13:28:00;100029.63;;;7.83;100.00
36380;BME280;22411;53.016;18.632;2023-02-21T13:30:39;100047.16;;;7.78;100.00
36380;BME280;22411;53.016;18.632;2023-02-21T13:33:22;100035.38;;;7.74;100.00
36380;BME280;22411;53.016;18.632;2023-02-21T13:35:49;100048.09;;;7.77;100.00
36380;BME280;22411;53.016;18.632;2023-02-21T13:38:17;100044.78;;;7.75;100.00
36380;BME280;22411;53.016;18.632;2023-02-21T13:40:51;100042.94;;;7.77;100.00
36380;BME280;22411;53.016;18.632;2023-02-21T13:43:26;100048.19;;;7.76;100.00
36380;BME280;22411;53.016;18.632;2023-02-21T13:45:54;100062.00;;;7.75;100.00
36380;BME280;22411;53.016;18.632;2023-02-21T13:48:23;100056.75;;;7.76;100.00
36380;BME280;22411;53.016;18.632;2023-02-21T13:50:55;100062.84;;;7.75;100.00
36380;BME280;22411;53.016;18.632;2023-02-21T13:53:31;100061.91;;;7.76;100.00
36380;BME280;22411;53.016;18.632;2023-02-21T13:58:30;100059.91;;;7.67;100.00
36380;BME280;22411;53.016;18.632;2023-02-21T14:01:13;100069.00;;;7.73;100.00
36380;BME280;22411;53.016;18.632;2023-02-21T14:03:40;100060.34;;;7.74;100.00
36380;BME280;22411;53.016;18.632;2023-02-21T14:08:47;100076.94;;;7.70;100.00
36380;BME280;22411;53.016;18.632;2023-02-21T14:11:22;100079.44;;;7.71;100.00
36380;BME280;22411;53.016;18.632;2023-02-21T14:13:53;100081.81;;;7.74;100.00
36380;BME280;22411;53.016;18.632;2023-02-21T14:16:27;100120.72;;;7.71;100.00
36380;BME280;22411;53.016;18.632;2023-02-21T14:18:59;100089.22;;;7.66;100.00
36380;BME280;22411;53.016;18.632;2023-02-21T14:24:26;100083.31;;;7.64;100.00
36380;BME280;22411;53.016;18.632;2023-02-21T14:27:01;100080.19;;;7.59;100.00
36380;BME280;22411;53.016;18.632;2023-02-21T14:29:44;100093.84;;;7.61;100.00
36380;BME280;22411;53.016;18.632;2023-02-21T14:34:59;100092.72;;;7.65;100.00
36380;BME280;22411;53.016;18.632;2023-02-21T14:53:30;100116.34;;;7.45;100.00
36380;BME280;22411;53.016;18.632;2023-02-21T14:58:58;100120.84;;;7.41;100.00
36380;BME280;22411;53.016;18.632;2023-02-21T15:09:34;100141.84;;;7.35;100.00
36380;BME280;22411;53.016;18.632;2023-02-21T15:12:04;100145.16;;;7.37;100.00
36380;BME280;22411;53.016;18.632;2023-02-21T15:14:38;100145.09;;;7.39;100.00
36380;BME280;22411;53.016;18.632;2023-02-21T15:17:20;100157.44;;;7.33;100.00
36380;BME280;22411;53.016;18.632;2023-02-21T15:20:02;100140.66;;;7.26;100.00